Time;durP1;ratioP1;P1;durP2;ratioP2;P2;SDS_P1;SDS_P2;PMS_P1;PMS_P2;Temp;Humidity;BMP_temperature;BMP_pressure;BME280_temperature;BME280_humidity;BME280_pressure;Samples;Min_cycle;Max_cycle;Signal;HPM_P1;HPM_P2
2022/01/14 00:02:02;;;;;;;2.58;1.13;;;;;;;-147.58;100.00;61311.59;5068550;28;20024;-65
2022/01/14 00:04:28;;;;;;;3.38;1.02;;;;;;;-147.58;100.00;61311.59;5067856;28;20287;-66
2022/01/14 00:06:54;;;;;;;1.65;0.93;;;;;;;-147.58;100.00;61311.59;5067803;28;20088;-65
2022/01/14 00:09:20;;;;;;;2.67;0.93;;;;;;;-147.58;100.00;61311.59;5067430;28;20028;-64
2022/01/14 00:11:50;;;;;;;6.22;0.93;;;;;;;-147.58;100.00;61311.59;5068221;28;20035;-64
2022/01/14 00:16:44;;;;;;;1.27;0.88;;;;;;;-147.58;100.00;61311.59;5068014;28;20146;-65
2022/01/14 00:19:11;;;;;;;3.25;0.70;;;;;;;-147.58;100.00;61311.59;5068013;28;20028;-64
2022/01/14 00:21:38;;;;;;;2.40;0.80;;;;;;;-147.58;100.00;61311.59;5068001;28;20070;-64
2022/01/14 00:24:10;;;;;;;2.78;0.70;;;;;;;-147.58;100.00;61311.59;5068346;28;20012;-64
2022/01/14 00:32:13;;;;;;;1.55;0.68;;;;;;;-147.58;100.00;61311.59;5068144;28;20218;-64
2022/01/14 00:34:38;;;;;;;1.70;0.70;;;;;;;-147.58;100.00;61311.59;5068055;28;20122;-63
2022/01/14 00:37:04;;;;;;;0.40;0.30;;;;;;;-147.58;100.00;61311.59;5067744;28;20020;-62
2022/01/14 00:39:30;;;;;;;0.85;0.60;;;;;;;-147.58;100.00;61311.59;5068191;28;20017;-63
2022/01/14 00:41:56;;;;;;;1.20;0.50;;;;;;;-147.58;100.00;61311.59;5067439;28;20099;-61
2022/01/14 00:44:22;;;;;;;1.33;0.50;;;;;;;-147.58;100.00;61311.59;5063505;28;20020;-64
2022/01/14 00:46:49;;;;;;;0.82;0.70;;;;;;;-147.58;100.00;61311.59;5068002;28;20261;-64
2022/01/14 00:49:16;;;;;;;2.35;0.65;;;;;;;-147.58;100.00;61311.59;5068128;28;20294;-64
2022/01/14 00:51:42;;;;;;;0.98;0.57;;;;;;;-147.58;100.00;61311.59;5068110;28;20040;-64
2022/01/14 00:54:08;;;;;;;0.40;0.40;;;;;;;-147.58;100.00;61311.59;5067862;28;20013;-64
2022/01/14 00:59:14;;;;;;;0.82;0.32;;;;;;;-147.58;100.00;61311.59;5067401;28;20037;-64
2022/01/14 01:02:01;;;;;;;0.65;0.45;;;;;;;-147.58;100.00;61311.59;5048054;28;20053;-65
2022/01/14 01:04:35;;;;;;;0.98;0.57;;;;;;;-147.58;100.00;61311.59;5047686;28;20017;-64
2022/01/14 01:07:03;;;;;;;1.42;0.50;;;;;;;-147.58;100.00;61311.59;5047903;28;20206;-64
2022/01/14 01:09:30;;;;;;;1.05;0.63;;;;;;;-147.58;100.00;61311.59;5047814;28;20033;-64
2022/01/14 01:14:47;;;;;;;15.52;0.70;;;;;;;-147.58;100.00;61311.59;5047993;28;20028;-65
2022/01/14 01:17:13;;;;;;;0.90;0.50;;;;;;;-147.58;100.00;61311.59;5047716;28;20014;-65
2022/01/14 01:19:40;;;;;;;1.20;0.50;;;;;;;-147.58;100.00;61311.59;5047734;28;20029;-64
2022/01/14 01:22:05;;;;;;;0.93;0.40;;;;;;;-147.58;100.00;61311.59;5047614;28;20025;-64
2022/01/14 01:24:31;;;;;;;0.28;0.25;;;;;;;-147.58;100.00;61311.59;5047671;28;20067;-64
2022/01/14 01:26:57;;;;;;;0.98;0.55;;;;;;;-147.58;100.00;61311.59;5047471;28;20021;-64
2022/01/14 01:31:49;;;;;;;0.68;0.20;;;;;;;-147.58;100.00;61311.59;5047477;28;20063;-63
2022/01/14 01:34:21;;;;;;;0.63;0.35;;;;;;;-147.58;100.00;61311.59;5063824;28;20040;-64
2022/01/14 01:36:49;;;;;;;2.72;0.50;;;;;;;-147.58;100.00;61311.59;5067404;28;20025;-64
2022/01/14 01:39:17;;;;;;;0.20;0.20;;;;;;;-147.58;100.00;61311.59;5067730;28;20020;-64
2022/01/14 01:41:53;;;;;;;3.67;0.50;;;;;;;-147.58;100.00;61311.59;5067398;28;20012;-64
2022/01/14 01:44:21;;;;;;;1.33;0.63;;;;;;;-147.58;100.00;61311.59;5067163;28;20035;-64
2022/01/14 01:46:47;;;;;;;0.40;0.30;;;;;;;-147.58;100.00;61311.59;5067227;28;20053;-64
2022/01/14 01:49:16;;;;;;;1.95;0.30;;;;;;;-147.58;100.00;61311.59;5067617;28;20126;-64
2022/01/14 01:51:43;;;;;;;0.30;0.28;;;;;;;-147.58;100.00;61311.59;5067356;28;20075;-64
2022/01/14 01:54:09;;;;;;;2.00;0.45;;;;;;;-147.58;100.00;61311.59;5067141;28;20073;-65
2022/01/14 01:56:36;;;;;;;0.45;0.35;;;;;;;-147.58;100.00;61311.59;5067300;28;20234;-65
2022/01/14 01:59:02;;;;;;;0.35;0.35;;;;;;;-147.58;100.00;61311.59;5067041;28;20157;-64
2022/01/14 02:01:27;;;;;;;0.57;0.40;;;;;;;-147.58;100.00;61311.59;5067208;28;20044;-64
2022/01/14 02:03:54;;;;;;;0.40;0.20;;;;;;;-147.58;100.00;61311.59;5067209;28;20294;-65
2022/01/14 02:06:21;;;;;;;0.43;0.30;;;;;;;-147.58;100.00;61311.59;5067134;28;20219;-64
2022/01/14 02:08:47;;;;;;;0.20;0.20;;;;;;;-147.58;100.00;61311.59;5067113;28;20021;-65
2022/01/14 02:11:13;;;;;;;5.93;0.50;;;;;;;-147.58;100.00;61311.59;5067133;28;20230;-64
2022/01/14 02:13:39;;;;;;;0.80;0.73;;;;;;;-147.58;100.00;61311.59;5067067;28;20176;-64
2022/01/14 02:24:07;;;;;;;0.40;0.30;;;;;;;-147.58;100.00;61311.59;5047067;28;20048;-64
2022/01/14 02:26:33;;;;;;;0.80;0.28;;;;;;;-147.58;100.00;61311.59;5047721;28;20017;-64
2022/01/14 02:28:58;;;;;;;1.33;0.32;;;;;;;-147.58;100.00;61311.59;5050821;28;20060;-64
2022/01/14 02:31:24;;;;;;;0.22;0.22;;;;;;;-147.58;100.00;61311.59;5050866;28;20043;-64
2022/01/14 02:33:50;;;;;;;0.47;0.30;;;;;;;-147.58;100.00;61311.59;5050784;28;20037;-65
2022/01/14 02:36:16;;;;;;;0.30;0.20;;;;;;;-147.58;100.00;61311.59;5050819;28;20017;-64
2022/01/14 02:38:44;;;;;;;0.50;0.30;;;;;;;-147.58;100.00;61311.59;5050669;28;20021;-65
2022/01/14 02:41:10;;;;;;;0.90;0.20;;;;;;;-147.58;100.00;61311.59;5050576;28;20013;-64
2022/01/14 02:43:36;;;;;;;0.40;0.28;;;;;;;-147.58;100.00;61311.59;5059295;28;20031;-64
2022/01/14 02:46:04;;;;;;;0.40;0.05;;;;;;;-147.58;100.00;61311.59;5070492;28;20021;-64
2022/01/14 02:48:29;;;;;;;0.20;0.20;;;;;;;-147.58;100.00;61311.59;5070501;28;20032;-64
2022/01/14 02:51:11;;;;;;;1.02;0.45;;;;;;;-147.58;100.00;61311.59;5070521;28;20083;-64
2022/01/14 02:56:04;;;;;;;0.40;0.30;;;;;;;-147.58;100.00;61311.59;5070475;28;20013;-64
2022/01/14 02:58:33;;;;;;;0.80;0.20;;;;;;;-147.58;100.00;61311.59;5070078;28;20052;-64
2022/01/14 03:01:02;;;;;;;0.40;0.20;;;;;;;-147.58;100.00;61311.59;5070280;28;20134;-63
2022/01/14 03:03:30;;;;;;;6.68;0.95;;;;;;;-147.58;100.00;61311.59;5070108;28;20055;-63
2022/01/14 03:05:56;;;;;;;0.10;0.10;;;;;;;-147.58;100.00;61311.59;5070052;28;20059;-64
2022/01/14 03:08:22;;;;;;;0.30;0.20;;;;;;;-147.58;100.00;61311.59;5070073;28;20028;-64
2022/01/14 03:10:54;;;;;;;0.52;0.20;;;;;;;-147.58;100.00;61311.59;5070040;28;20055;-64
2022/01/14 03:13:20;;;;;;;;;;;;;;;-147.58;100.00;61311.59;5070233;28;20226;-64
2022/01/14 03:15:45;;;;;;;0.43;0.30;;;;;;;-147.58;100.00;61311.59;5069917;28;20181;-64
2022/01/14 03:18:15;;;;;;;0.20;0.20;;;;;;;-147.58;100.00;61311.59;5069721;28;20028;-65
2022/01/14 03:23:07;;;;;;;1.10;0.35;;;;;;;-147.58;100.00;61311.59;5069744;28;20017;-64
2022/01/14 03:25:49;;;;;;;0.57;0.20;;;;;;;-147.58;100.00;61311.59;5069711;28;20028;-64
2022/01/14 03:28:20;;;;;;;0.20;0.20;;;;;;;-147.58;100.00;61311.59;5069597;28;20021;-64
2022/01/14 03:30:46;;;;;;;;;;;;;;;-147.58;100.00;61311.59;5070403;28;20126;-64
2022/01/14 03:33:12;;;;;;;0.40;0.20;;;;;;;-147.58;100.00;61311.59;5069604;28;19896;-64
2022/01/14 03:35:37;;;;;;;1.48;0.40;;;;;;;-147.58;100.00;61311.59;5069687;28;20072;-64
2022/01/14 03:38:03;;;;;;;1.08;0.30;;;;;;;-147.58;100.00;61311.59;5068407;28;20016;-64
2022/01/14 03:40:29;;;;;;;0.30;0.20;;;;;;;-147.58;100.00;61311.59;5069584;28;20025;-64
2022/01/14 03:42:54;;;;;;;1.95;0.22;;;;;;;-147.58;100.00;61311.59;5069261;28;20027;-64
2022/01/14 03:45:20;;;;;;;1.45;0.30;;;;;;;-147.58;100.00;61311.59;5069321;28;20075;-65
2022/01/14 03:47:45;;;;;;;1.13;0.38;;;;;;;-147.58;100.00;61311.59;5069327;28;20135;-65
2022/01/14 03:50:11;;;;;;;0.57;0.20;;;;;;;-147.58;100.00;61311.59;5069393;28;20031;-64
2022/01/14 03:52:36;;;;;;;0.63;0.20;;;;;;;-147.58;100.00;61311.59;5069302;28;20037;-63
2022/01/14 03:55:03;;;;;;;0.68;0.30;;;;;;;-147.58;100.00;61311.59;5054236;28;20017;-65
2022/01/14 03:57:28;;;;;;;0.20;0.20;;;;;;;-147.58;100.00;61311.59;5049091;28;20068;-64
2022/01/14 03:59:54;;;;;;;0.50;0.40;;;;;;;-147.58;100.00;61311.59;5049252;28;20021;-65
2022/01/14 04:02:19;;;;;;;0.85;0.28;;;;;;;-147.58;100.00;61311.59;5049030;28;20029;-64
2022/01/14 04:04:45;;;;;;;1.08;0.35;;;;;;;-147.58;100.00;61311.59;5049110;28;20226;-63
2022/01/14 04:07:10;;;;;;;0.43;0.30;;;;;;;-147.58;100.00;61311.59;5048913;28;20306;-64
2022/01/14 04:09:37;;;;;;;0.70;0.20;;;;;;;-147.58;100.00;61311.59;5049003;28;20092;-65
2022/01/14 04:12:04;;;;;;;1.48;0.90;;;;;;;-147.58;100.00;61311.59;5048903;28;20021;-64
2022/01/14 04:15:36;;;;;;;0.80;0.40;;;;;;;-147.58;100.00;61311.59;5049177;28;20147;-64
2022/01/14 04:17:16;;;;;;;1.65;0.22;;;;;;;-147.58;100.00;61311.59;5048825;28;20036;-65
2022/01/14 04:19:41;;;;;;;0.75;0.40;;;;;;;-147.58;100.00;61311.59;5048824;28;20013;-64
2022/01/14 04:22:07;;;;;;;0.75;0.32;;;;;;;-147.58;100.00;61311.59;5048664;28;20028;-65
2022/01/14 04:24:32;;;;;;;4.50;0.50;;;;;;;-147.58;100.00;61311.59;5048714;28;20056;-65
2022/01/14 04:26:58;;;;;;;1.02;0.40;;;;;;;-147.58;100.00;61311.59;5048548;28;20095;-64
2022/01/14 04:29:23;;;;;;;1.02;0.40;;;;;;;-147.58;100.00;61311.59;5048650;28;20143;-65
2022/01/14 04:31:49;;;;;;;0.90;0.40;;;;;;;-147.58;100.00;61311.59;5048530;28;20272;-64
2022/01/14 04:34:16;;;;;;;2.22;0.73;;;;;;;-147.58;100.00;61311.59;5067060;28;20043;-65
2022/01/14 04:36:42;;;;;;;2.90;0.50;;;;;;;-147.58;100.00;61311.59;5068412;28;20189;-64
2022/01/14 04:39:08;;;;;;;0.90;0.40;;;;;;;-147.58;100.00;61311.59;5068161;28;20044;-65
2022/01/14 04:41:34;;;;;;;1.35;0.50;;;;;;;-147.58;100.00;61311.59;5068221;28;20017;-65
2022/01/14 04:44:00;;;;;;;0.30;0.30;;;;;;;-147.58;100.00;61311.59;5067923;28;20016;-65
2022/01/14 04:49:07;;;;;;;1.70;0.70;;;;;;;-147.58;100.00;61311.59;5068137;28;20244;-65
2022/01/14 04:51:33;;;;;;;0.73;0.40;;;;;;;-147.58;100.00;61311.59;5068073;28;20032;-65
2022/01/14 04:53:59;;;;;;;2.42;0.70;;;;;;;-147.58;100.00;61311.59;5067886;28;20250;-65
2022/01/14 04:56:24;;;;;;;1.77;0.70;;;;;;;-147.58;100.00;61311.59;5067876;28;20020;-65
2022/01/14 04:58:50;;;;;;;1.33;0.60;;;;;;;-147.58;100.00;61311.59;5067392;28;20043;-65
2022/01/14 05:01:15;;;;;;;1.85;0.60;;;;;;;-147.58;100.00;61311.59;5067840;28;20084;-65
2022/01/14 05:03:41;;;;;;;0.98;0.50;;;;;;;-147.58;100.00;61311.59;5067674;28;20082;-65
2022/01/14 05:06:07;;;;;;;1.40;0.60;;;;;;;-147.58;100.00;61311.59;5067712;28;20141;-64
2022/01/14 05:08:39;;;;;;;2.13;0.43;;;;;;;-147.58;100.00;61311.59;5067804;28;20021;-65
2022/01/14 05:13:43;;;;;;;2.28;0.50;;;;;;;-147.58;100.00;61311.59;5068030;28;20016;-64
2022/01/14 05:16:09;;;;;;;1.58;0.50;;;;;;;-147.58;100.00;61311.59;5067778;28;20032;-65
2022/01/14 05:18:37;;;;;;;1.00;0.30;;;;;;;-147.58;100.00;61311.59;5067663;28;20095;-64
2022/01/14 05:21:06;;;;;;;2.90;0.85;;;;;;;-147.58;100.00;61311.59;5067992;28;20039;-65
2022/01/14 05:23:32;;;;;;;1.60;0.52;;;;;;;-147.58;100.00;61311.59;5067368;28;20025;-64
2022/01/14 05:25:57;;;;;;;0.57;0.30;;;;;;;-147.58;100.00;61311.59;5067407;28;20037;-63
2022/01/14 05:28:23;;;;;;;0.70;0.40;;;;;;;-147.58;100.00;61311.59;5067444;28;20119;-64
2022/01/14 05:30:48;;;;;;;1.35;0.40;;;;;;;-147.58;100.00;61311.59;5067443;28;20031;-64
2022/01/14 05:33:18;;;;;;;0.85;0.40;;;;;;;-147.58;100.00;61311.59;5067428;28;20091;-64
2022/01/14 05:35:43;;;;;;;0.60;0.40;;;;;;;-147.58;100.00;61311.59;5066530;28;20032;-64
2022/01/14 05:38:09;;;;;;;1.15;0.50;;;;;;;-147.58;100.00;61311.59;5067404;28;20017;-64
2022/01/14 05:40:34;;;;;;;2.20;0.45;;;;;;;-147.58;100.00;61311.59;5067382;28;20020;-64
2022/01/14 05:43:01;;;;;;;0.95;0.60;;;;;;;-147.58;100.00;61311.59;5067016;28;20028;-65
2022/01/14 05:45:27;;;;;;;1.10;0.50;;;;;;;-147.58;100.00;61311.59;5067286;28;20039;-65
2022/01/14 05:47:53;;;;;;;2.95;0.60;;;;;;;-147.58;100.00;61311.59;5067306;28;20027;-65
2022/01/14 05:50:21;;;;;;;1.67;0.30;;;;;;;-147.58;100.00;61311.59;5067330;28;20021;-64
2022/01/14 05:52:47;;;;;;;1.10;0.40;;;;;;;-147.58;100.00;61311.59;5067204;28;20021;-64
2022/01/14 05:55:14;;;;;;;0.95;0.38;;;;;;;-147.58;100.00;61311.59;5067067;28;20021;-64
2022/01/14 05:57:41;;;;;;;1.35;0.80;;;;;;;-147.58;100.00;61311.59;5067012;28;20100;-64
2022/01/14 06:00:09;;;;;;;0.63;0.43;;;;;;;-147.58;100.00;61311.59;5067251;28;20280;-65
2022/01/14 06:02:35;;;;;;;1.17;0.68;;;;;;;-147.58;100.00;61311.59;5069633;28;20039;-64
2022/01/14 06:05:01;;;;;;;0.77;0.30;;;;;;;-147.58;100.00;61311.59;5071310;28;20020;-64
2022/01/14 06:07:26;;;;;;;1.58;0.50;;;;;;;-147.58;100.00;61311.59;5071244;28;20024;-63
2022/01/14 06:09:52;;;;;;;2.00;0.60;;;;;;;-147.58;100.00;61311.59;5071256;28;20020;-63
2022/01/14 06:12:17;;;;;;;1.65;0.57;;;;;;;-147.58;100.00;61311.59;5071100;28;20288;-64
2022/01/14 06:14:43;;;;;;;1.00;0.47;;;;;;;-147.58;100.00;61311.59;5070989;28;20013;-63
2022/01/14 06:17:08;;;;;;;1.55;0.45;;;;;;;-147.58;100.00;61311.59;5070941;28;20020;-64
2022/01/14 06:19:34;;;;;;;0.85;0.35;;;;;;;-147.58;100.00;61311.59;5071363;28;20021;-64
2022/01/14 06:21:59;;;;;;;0.55;0.30;;;;;;;-147.58;100.00;61311.59;5070921;28;20021;-64
2022/01/14 06:24:25;;;;;;;1.27;0.28;;;;;;;-147.58;100.00;61311.59;5070972;28;20021;-64
2022/01/14 06:26:50;;;;;;;1.60;0.52;;;;;;;-147.58;100.00;61311.59;5070802;28;20139;-65
2022/01/14 06:29:16;;;;;;;1.20;0.40;;;;;;;-147.58;100.00;61311.59;5070896;28;20020;-63
2022/01/14 06:31:41;;;;;;;1.02;0.43;;;;;;;-147.58;100.00;61311.59;5070806;28;20032;-64
2022/01/14 06:34:07;;;;;;;1.52;0.30;;;;;;;-147.58;100.00;61311.59;5070713;28;20028;-63
2022/01/14 06:36:32;;;;;;;0.70;0.30;;;;;;;-147.58;100.00;61311.59;5070714;28;20089;-63
2022/01/14 06:38:58;;;;;;;0.70;0.40;;;;;;;-147.58;100.00;61311.59;5070634;28;20111;-63
2022/01/14 06:41:23;;;;;;;1.60;0.43;;;;;;;-147.58;100.00;61311.59;5070701;28;20078;-64
2022/01/14 06:43:49;;;;;;;0.63;0.40;;;;;;;-147.58;100.00;61311.59;5070425;28;20017;-63
2022/01/14 06:46:14;;;;;;;0.63;0.40;;;;;;;-147.58;100.00;61311.59;5070535;28;20021;-64
2022/01/14 06:48:40;;;;;;;1.00;0.40;;;;;;;-147.58;100.00;61311.59;5070631;28;20083;-63
2022/01/14 06:51:12;;;;;;;1.50;0.47;;;;;;;-147.58;100.00;61311.59;5070075;28;20237;-63
2022/01/14 06:53:38;;;;;;;1.15;0.65;;;;;;;-147.58;100.00;61311.59;5069827;28;20056;-64
2022/01/14 06:56:03;;;;;;;1.05;0.40;;;;;;;-147.58;100.00;61311.59;5070412;28;20184;-64
2022/01/14 06:58:29;;;;;;;1.73;0.40;;;;;;;-147.58;100.00;61311.59;5070117;28;20036;-64
2022/01/14 07:00:55;;;;;;;1.55;0.60;;;;;;;-147.58;100.00;61311.59;5070345;28;20028;-64
2022/01/14 07:03:20;;;;;;;0.57;0.32;;;;;;;-147.58;100.00;61311.59;5069783;28;20017;-64
2022/01/14 07:05:46;;;;;;;1.38;0.50;;;;;;;-147.58;100.00;61311.59;5070159;28;20051;-64
2022/01/14 07:08:11;;;;;;;8.70;0.98;;;;;;;-147.58;100.00;61311.59;5069886;28;20086;-63
2022/01/14 07:10:37;;;;;;;0.65;0.35;;;;;;;-147.58;100.00;61311.59;5070014;28;20273;-63
2022/01/14 07:13:04;;;;;;;3.08;0.70;;;;;;;-147.58;100.00;61311.59;5069921;28;20013;-63
2022/01/14 07:15:30;;;;;;;2.33;0.80;;;;;;;-147.58;100.00;61311.59;5070032;28;20182;-63
2022/01/14 07:17:56;;;;;;;5.07;0.88;;;;;;;-147.58;100.00;61311.59;5069815;28;20037;-62
2022/01/14 07:20:22;;;;;;;1.85;0.65;;;;;;;-147.58;100.00;61311.59;5069670;28;20017;-62
2022/01/14 07:22:47;;;;;;;4.38;1.40;;;;;;;-147.58;100.00;61311.59;5069678;28;20056;-62
2022/01/14 07:25:13;;;;;;;6.28;0.93;;;;;;;-147.58;100.00;61311.59;5069513;28;20134;-63
2022/01/14 07:27:40;;;;;;;5.88;1.02;;;;;;;-147.58;100.00;61311.59;5052800;28;20017;-63
2022/01/14 07:30:06;;;;;;;5.82;0.90;;;;;;;-147.58;100.00;61311.59;5049692;28;20032;-64
2022/01/14 07:32:32;;;;;;;2.60;0.57;;;;;;;-147.58;100.00;61311.59;5055449;28;20021;-63
2022/01/14 07:34:57;;;;;;;3.20;0.65;;;;;;;-147.58;100.00;61311.59;5069067;28;20245;-62
2022/01/14 07:37:23;;;;;;;4.35;0.90;;;;;;;-147.58;100.00;61311.59;5069350;28;20031;-64
2022/01/14 07:39:48;;;;;;;3.03;0.77;;;;;;;-147.58;100.00;61311.59;5066919;28;20021;-63
2022/01/14 07:42:15;;;;;;;1.40;0.60;;;;;;;-147.58;100.00;61311.59;5051808;28;20045;-64
2022/01/14 07:44:40;;;;;;;5.25;0.85;;;;;;;-147.58;100.00;61311.59;5053233;28;20021;-63
2022/01/14 07:47:06;;;;;;;5.32;0.68;;;;;;;-147.58;100.00;61311.59;5051602;28;20120;-63
2022/01/14 07:49:32;;;;;;;4.38;0.93;;;;;;;-147.58;100.00;61311.59;5049074;28;20039;-63
2022/01/14 07:51:58;;;;;;;3.78;1.02;;;;;;;-147.58;100.00;61311.59;5049147;28;20017;-64
2022/01/14 07:54:24;;;;;;;1.90;1.00;;;;;;;-147.58;100.00;61311.59;5060011;28;20142;-63
2022/01/14 07:56:52;;;;;;;2.08;0.55;;;;;;;-147.58;100.00;61311.59;5068924;28;20009;-62
2022/01/14 07:59:21;;;;;;;3.13;0.57;;;;;;;-147.58;100.00;61311.59;5067593;28;20033;-63
2022/01/14 08:01:49;;;;;;;3.13;0.93;;;;;;;-147.58;100.00;61311.59;5060908;28;20078;-63
2022/01/14 08:04:17;;;;;;;3.25;0.55;;;;;;;-147.58;100.00;61311.59;5067781;28;21027;-63
2022/01/14 08:06:48;;;;;;;3.13;0.77;;;;;;;-147.58;100.00;61311.59;5068244;28;20032;-63
2022/01/14 08:09:15;;;;;;;1.42;0.60;;;;;;;-147.58;100.00;61311.59;5067402;28;20075;-64
2022/01/14 08:11:41;;;;;;;2.22;0.50;;;;;;;-147.58;100.00;61311.59;5068733;28;20046;-64
2022/01/14 08:14:07;;;;;;;4.93;0.63;;;;;;;-147.58;100.00;61311.59;5068761;28;20024;-63
2022/01/14 08:16:32;;;;;;;1.83;0.73;;;;;;;-147.58;100.00;61311.59;5068776;28;20035;-63
2022/01/14 08:18:58;;;;;;;4.65;0.60;;;;;;;-147.58;100.00;61311.59;5069017;28;20106;-63
2022/01/14 08:21:23;;;;;;;3.70;1.65;;;;;;;-147.58;100.00;61311.59;5068747;28;20088;-64
2022/01/14 08:23:49;;;;;;;4.95;1.08;;;;;;;-147.58;100.00;61311.59;5068372;28;20241;-64
2022/01/14 08:26:14;;;;;;;1.55;0.80;;;;;;;-147.58;100.00;61311.59;5068630;28;20040;-64
2022/01/14 08:28:40;;;;;;;3.08;0.70;;;;;;;-147.58;100.00;61311.59;5068560;28;20013;-64
2022/01/14 08:31:06;;;;;;;1.65;0.60;;;;;;;-147.58;100.00;61311.59;5068562;28;20020;-63
2022/01/14 08:33:31;;;;;;;2.22;0.90;;;;;;;-147.58;100.00;61311.59;5068301;28;20017;-64
2022/01/14 08:35:57;;;;;;;2.92;0.70;;;;;;;-147.58;100.00;61311.59;5068476;28;20265;-64
2022/01/14 08:38:23;;;;;;;2.80;1.00;;;;;;;-147.58;100.00;61311.59;5068298;28;20032;-64
2022/01/14 08:40:49;;;;;;;2.47;1.08;;;;;;;-147.58;100.00;61311.59;5068400;28;20043;-64
2022/01/14 08:43:15;;;;;;;3.35;1.02;;;;;;;-147.58;100.00;61311.59;5068047;28;20067;-64
2022/01/14 08:45:41;;;;;;;1.17;0.70;;;;;;;-147.58;100.00;61311.59;5068277;28;20029;-62
2022/01/14 08:48:07;;;;;;;1.45;0.70;;;;;;;-147.58;100.00;61311.59;5068233;28;20029;-65
2022/01/14 08:50:35;;;;;;;1.60;1.08;;;;;;;-147.58;100.00;61311.59;5068023;28;20044;-65
2022/01/14 08:53:03;;;;;;;2.25;0.73;;;;;;;-147.58;100.00;61311.59;5067978;28;20044;-63
2022/01/14 08:55:29;;;;;;;1.85;0.50;;;;;;;-147.58;100.00;61311.59;5066708;28;20021;-64
2022/01/14 08:57:55;;;;;;;1.50;0.60;;;;;;;-147.58;100.00;61311.59;5067826;28;20107;-63
2022/01/14 09:00:23;;;;;;;1.70;0.70;;;;;;;-147.58;100.00;61311.59;5068263;28;20037;-63
2022/01/14 09:02:49;;;;;;;1.83;0.80;;;;;;;-147.58;100.00;61311.59;5067937;28;20020;-63
2022/01/14 09:05:15;;;;;;;1.42;0.73;;;;;;;-147.58;100.00;61311.59;5067879;28;20021;-63
2022/01/14 09:07:40;;;;;;;1.95;0.65;;;;;;;-147.58;100.00;61311.59;5067818;28;20048;-63
2022/01/14 09:10:07;;;;;;;1.65;0.90;;;;;;;-147.58;100.00;61311.59;5067863;28;20041;-63
2022/01/14 09:12:34;;;;;;;1.10;0.63;;;;;;;-147.58;100.00;61311.59;5067753;28;20114;-62
2022/01/14 09:15:00;;;;;;;1.67;0.60;;;;;;;-147.58;100.00;61311.59;5067809;28;20093;-63
2022/01/14 09:17:26;;;;;;;4.80;0.70;;;;;;;-147.58;100.00;61311.59;5067638;28;20028;-63
2022/01/14 09:19:52;;;;;;;1.77;0.50;;;;;;;-147.58;100.00;61311.59;5067672;28;20190;-63
2022/01/14 09:22:18;;;;;;;6.65;0.88;;;;;;;-147.58;100.00;61311.59;5067501;28;20041;-63
2022/01/14 09:24:45;;;;;;;2.58;0.70;;;;;;;-147.58;100.00;61311.59;5067493;28;20237;-63
2022/01/14 09:27:12;;;;;;;0.60;0.40;;;;;;;-147.58;100.00;61311.59;5067373;28;20024;-63
2022/01/14 09:29:38;;;;;;;1.42;0.57;;;;;;;-147.58;100.00;61311.59;5067515;28;20033;-62
2022/01/14 09:32:05;;;;;;;2.65;0.55;;;;;;;-147.58;100.00;61311.59;5067367;28;20090;-64
2022/01/14 09:34:31;;;;;;;0.93;0.60;;;;;;;-147.58;100.00;61311.59;5066815;28;20021;-62
2022/01/14 09:36:57;;;;;;;1.70;0.88;;;;;;;-147.58;100.00;61311.59;5066217;28;20084;-63
2022/01/14 09:39:22;;;;;;;1.60;0.47;;;;;;;-147.58;100.00;61311.59;5067425;28;20020;-62
2022/01/14 09:41:48;;;;;;;2.42;0.60;;;;;;;-147.58;100.00;61311.59;5066741;28;20020;-63
2022/01/14 09:44:18;;;;;;;0.68;0.30;;;;;;;-147.58;100.00;61311.59;5066378;28;20027;-62
2022/01/14 09:46:47;;;;;;;3.28;0.50;;;;;;;-147.58;100.00;61311.59;5066627;28;20040;-64
2022/01/14 09:49:14;;;;;;;2.15;0.52;;;;;;;-147.58;100.00;61311.59;5066999;28;20036;-64
2022/01/14 09:51:40;;;;;;;0.65;0.40;;;;;;;-147.58;100.00;61311.59;5066702;28;20106;-63
2022/01/14 09:54:06;;;;;;;1.00;0.40;;;;;;;-147.58;100.00;61311.59;5066340;28;20032;-63
2022/01/14 09:56:32;;;;;;;1.38;0.47;;;;;;;-147.58;100.00;61311.59;5066963;28;20013;-64
2022/01/14 09:58:58;;;;;;;1.08;0.45;;;;;;;-147.58;100.00;61311.59;5066619;28;20253;-63
2022/01/14 10:01:24;;;;;;;0.93;0.50;;;;;;;-147.58;100.00;61311.59;5066790;28;20024;-63
2022/01/14 10:04:02;;;;;;;1.38;0.70;;;;;;;-147.58;100.00;61311.59;5066864;28;20138;-62
2022/01/14 10:06:49;;;;;;;4.85;2.58;;;;;;;-147.58;100.00;61311.59;5066439;28;20262;-64
2022/01/14 10:09:22;;;;;;;6.10;3.70;;;;;;;-147.58;100.00;61311.59;5066791;28;20220;-63
2022/01/14 10:12:17;;;;;;;8.32;3.85;;;;;;;-147.58;100.00;61311.59;5059233;28;20078;-63
2022/01/14 10:14:54;;;;;;;13.77;8.02;;;;;;;-147.58;100.00;61311.59;5058069;28;20036;-63
2022/01/14 10:17:20;;;;;;;19.17;7.25;;;;;;;-147.58;100.00;61311.59;5066139;28;20253;-63
2022/01/14 10:19:48;;;;;;;10.63;5.22;;;;;;;-147.58;100.00;61311.59;5067001;28;20040;-62
2022/01/14 10:22:32;;;;;;;8.45;5.10;;;;;;;-147.58;100.00;61311.59;5066380;28;20139;-62
2022/01/14 10:25:02;;;;;;;8.95;4.32;;;;;;;-147.58;100.00;61311.59;5066669;28;20037;-62
2022/01/14 10:27:35;;;;;;;6.43;3.60;;;;;;;-147.58;100.00;61311.59;5067031;28;20017;-63
2022/01/14 10:30:28;;;;;;;8.75;4.65;;;;;;;-147.58;100.00;61311.59;5066867;28;20345;-63
2022/01/14 10:33:05;;;;;;;6.18;3.58;;;;;;;-147.58;100.00;61311.59;5066732;28;20009;-62
2022/01/14 10:35:41;;;;;;;5.82;3.85;;;;;;;-147.58;100.00;61311.59;5066887;28;20017;-63
2022/01/14 10:38:08;;;;;;;7.88;3.15;;;;;;;-147.58;100.00;61311.59;5067084;28;20138;-63
2022/01/14 10:40:38;;;;;;;6.00;3.05;;;;;;;-147.58;100.00;61311.59;5066838;28;20088;-62
2022/01/14 10:43:12;;;;;;;4.63;2.45;;;;;;;-147.58;100.00;61311.59;5066657;28;20032;-63
2022/01/14 10:45:39;;;;;;;4.07;1.90;;;;;;;-147.58;100.00;61311.59;5066689;28;20096;-62
2022/01/14 10:48:10;;;;;;;8.10;2.60;;;;;;;-147.58;100.00;61311.59;5068059;28;20032;-62
2022/01/14 10:50:52;;;;;;;4.18;2.03;;;;;;;-147.58;100.00;61311.59;5070283;28;20021;-63
2022/01/14 10:53:23;;;;;;;3.10;1.60;;;;;;;-147.58;100.00;61311.59;5070267;28;20096;-62
2022/01/14 10:55:58;;;;;;;8.63;2.10;;;;;;;-147.58;100.00;61311.59;5070396;28;20123;-63
2022/01/14 10:58:27;;;;;;;5.78;1.33;;;;;;;-147.58;100.00;61311.59;5070394;28;20032;-64
2022/01/14 11:00:59;;;;;;;5.03;1.75;;;;;;;-147.58;100.00;61311.59;5070252;28;20129;-63
2022/01/14 11:03:36;;;;;;;4.68;1.70;;;;;;;-147.58;100.00;61311.59;5070232;28;20063;-64
2022/01/14 11:06:25;;;;;;;3.45;1.50;;;;;;;-147.58;100.00;61311.59;5070171;28;20036;-64
2022/01/14 11:08:56;;;;;;;2.75;1.33;;;;;;;-147.58;100.00;61311.59;5070028;28;20033;-64
2022/01/14 11:11:22;;;;;;;1.75;0.95;;;;;;;-147.58;100.00;61311.59;5070078;28;20016;-64
2022/01/14 11:13:48;;;;;;;3.85;1.40;;;;;;;-147.58;100.00;61311.59;5069980;28;20173;-62
2022/01/14 11:16:13;;;;;;;3.65;1.30;;;;;;;-147.58;100.00;61311.59;5069984;28;20028;-63
2022/01/14 11:18:40;;;;;;;2.03;1.08;;;;;;;-147.58;100.00;61311.59;5069833;28;20036;-64
2022/01/14 11:23:49;;;;;;;3.08;1.33;;;;;;;-147.58;100.00;61311.59;5069764;28;20024;-64
2022/01/14 11:26:20;;;;;;;2.35;0.80;;;;;;;-147.58;100.00;61311.59;5069692;28;20137;-65
2022/01/14 11:28:47;;;;;;;4.30;1.20;;;;;;;-147.58;100.00;61311.59;5069487;28;20013;-65
2022/01/14 11:31:36;;;;;;;0.85;0.70;;;;;;;-147.58;100.00;61311.59;5069723;28;20084;-64
2022/01/14 11:34:03;;;;;;;1.90;0.82;;;;;;;-147.58;100.00;61311.59;5069621;28;20009;-65
2022/01/14 11:36:49;;;;;;;2.03;0.80;;;;;;;-147.58;100.00;61311.59;5069353;28;20146;-65
2022/01/14 11:39:26;;;;;;;1.45;0.60;;;;;;;-147.58;100.00;61311.59;5058739;28;20148;-64
2022/01/14 11:41:56;;;;;;;1.10;0.70;;;;;;;-147.58;100.00;61311.59;5069384;28;20056;-65
2022/01/14 11:47:25;;;;;;;1.88;0.68;;;;;;;-147.58;100.00;61311.59;5069175;28;20083;-65
2022/01/14 11:49:51;;;;;;;;;;;;;;;-147.58;100.00;61311.59;5069408;28;20031;-65
2022/01/14 11:52:36;;;;;;;1.48;0.40;;;;;;;-147.58;100.00;61311.59;5068100;28;20062;-65